sensor_id;sensor_type;location;lat;lon;timestamp;P1;durP1;ratioP1;P2;durP2;ratioP2
72974;SDS011;74127;54.228;37.632;2023-11-21T00:00:46;8.5;;;7.4;;
72974;SDS011;74127;54.228;37.632;2023-11-21T00:04:47;8.5;;;7.4;;
72974;SDS011;74127;54.228;37.632;2023-11-21T00:08:46;10.1;;;9.2;;
72974;SDS011;74127;54.228;37.632;2023-11-21T00:12:46;8.9;;;7.9;;
72974;SDS011;74127;54.228;37.632;2023-11-21T00:16:46;9.4;;;8.5;;
72974;SDS011;74127;54.228;37.632;2023-11-21T00:20:46;8.2;;;7.4;;
72974;SDS011;74127;54.228;37.632;2023-11-21T00:24:46;8.2;;;7.4;;
72974;SDS011;74127;54.228;37.632;2023-11-21T00:28:46;11.6;;;10;;
72974;SDS011;74127;54.228;37.632;2023-11-21T00:32:46;10.4;;;9.4;;
72974;SDS011;74127;54.228;37.632;2023-11-21T00:36:46;9;;;8.2;;
72974;SDS011;74127;54.228;37.632;2023-11-21T00:40:46;10;;;9;;
72974;SDS011;74127;54.228;37.632;2023-11-21T00:44:46;10;;;9;;
72974;SDS011;74127;54.228;37.632;2023-11-21T00:48:46;8.6;;;7.5;;
72974;SDS011;74127;54.228;37.632;2023-11-21T00:52:46;9.9;;;9;;
72974;SDS011;74127;54.228;37.632;2023-11-21T00:56:46;7.5;;;6.8;;
72974;SDS011;74127;54.228;37.632;2023-11-21T01:00:46;7.6;;;7;;
72974;SDS011;74127;54.228;37.632;2023-11-21T01:04:46;7.6;;;7;;
72974;SDS011;74127;54.228;37.632;2023-11-21T01:08:46;8.7;;;8.1;;
72974;SDS011;74127;54.228;37.632;2023-11-21T01:12:46;9.5;;;8.6;;
72974;SDS011;74127;54.228;37.632;2023-11-21T01:16:47;9.9;;;9;;
72974;SDS011;74127;54.228;37.632;2023-11-21T01:20:46;9.9;;;9;;
72974;SDS011;74127;54.228;37.632;2023-11-21T01:24:46;8.3;;;7.5;;
72974;SDS011;74127;54.228;37.632;2023-11-21T01:28:47;8;;;7.3;;
72974;SDS011;74127;54.228;37.632;2023-11-21T01:32:46;8.7;;;7.9;;
72974;SDS011;74127;54.228;37.632;2023-11-21T01:36:47;8.7;;;8;;
72974;SDS011;74127;54.228;37.632;2023-11-21T01:40:46;8.7;;;8;;
72974;SDS011;74127;54.228;37.632;2023-11-21T01:44:46;7.9;;;7.2;;
72974;SDS011;74127;54.228;37.632;2023-11-21T01:48:48;7.9;;;7.2;;
72974;SDS011;74127;54.228;37.632;2023-11-21T01:52:47;8.8;;;7.9;;
72974;SDS011;74127;54.228;37.632;2023-11-21T01:56:47;8;;;7.3;;
72974;SDS011;74127;54.228;37.632;2023-11-21T02:00:47;8;;;7.3;;
72974;SDS011;74127;54.228;37.632;2023-11-21T02:04:47;7.5;;;6.9;;
72974;SDS011;74127;54.228;37.632;2023-11-21T02:08:47;16.1;;;9.1;;
72974;SDS011;74127;54.228;37.632;2023-11-21T02:12:47;7.3;;;6.8;;
72974;SDS011;74127;54.228;37.632;2023-11-21T02:16:47;8.6;;;7.7;;
72974;SDS011;74127;54.228;37.632;2023-11-21T02:20:47;8.6;;;7.7;;
72974;SDS011;74127;54.228;37.632;2023-11-21T02:24:47;7.8;;;7.3;;
72974;SDS011;74127;54.228;37.632;2023-11-21T02:28:47;7.9;;;7.3;;
72974;SDS011;74127;54.228;37.632;2023-11-21T02:32:47;8.1;;;7.4;;
72974;SDS011;74127;54.228;37.632;2023-11-21T02:36:47;7.6;;;7.1;;
72974;SDS011;74127;54.228;37.632;2023-11-21T02:40:47;7.6;;;7.1;;
72974;SDS011;74127;54.228;37.632;2023-11-21T02:44:47;6.7;;;6.2;;
72974;SDS011;74127;54.228;37.632;2023-11-21T02:48:47;7;;;6.5;;
72974;SDS011;74127;54.228;37.632;2023-11-21T02:52:47;7.4;;;6.7;;
72974;SDS011;74127;54.228;37.632;2023-11-21T02:56:47;8.8;;;8.1;;
72974;SDS011;74127;54.228;37.632;2023-11-21T03:00:47;8.8;;;8.1;;
72974;SDS011;74127;54.228;37.632;2023-11-21T03:04:47;7.4;;;6.7;;
72974;SDS011;74127;54.228;37.632;2023-11-21T03:08:47;6.8;;;6.3;;
72974;SDS011;74127;54.228;37.632;2023-11-21T03:12:47;6.4;;;5.9;;
72974;SDS011;74127;54.228;37.632;2023-11-21T03:16:48;6.4;;;5.9;;
72974;SDS011;74127;54.228;37.632;2023-11-21T03:20:47;8.5;;;7.8;;
72974;SDS011;74127;54.228;37.632;2023-11-21T03:24:47;8.9;;;8;;
72974;SDS011;74127;54.228;37.632;2023-11-21T03:28:47;7.2;;;6.6;;
72974;SDS011;74127;54.228;37.632;2023-11-21T03:32:47;6.7;;;6.1;;
72974;SDS011;74127;54.228;37.632;2023-11-21T03:36:47;6.7;;;6.1;;
72974;SDS011;74127;54.228;37.632;2023-11-21T03:40:47;9.1;;;8.1;;
72974;SDS011;74127;54.228;37.632;2023-11-21T03:44:47;9.2;;;8.4;;
72974;SDS011;74127;54.228;37.632;2023-11-21T03:48:47;7.9;;;7.3;;
72974;SDS011;74127;54.228;37.632;2023-11-21T03:52:47;8.1;;;7.3;;
72974;SDS011;74127;54.228;37.632;2023-11-21T03:56:47;8.1;;;7.3;;
72974;SDS011;74127;54.228;37.632;2023-11-21T04:00:47;8;;;7.3;;
72974;SDS011;74127;54.228;37.632;2023-11-21T04:04:47;9.8;;;8.8;;
72974;SDS011;74127;54.228;37.632;2023-11-21T04:08:47;9.1;;;8.2;;
72974;SDS011;74127;54.228;37.632;2023-11-21T04:12:47;9;;;8.1;;
72974;SDS011;74127;54.228;37.632;2023-11-21T04:16:47;9;;;8.1;;
72974;SDS011;74127;54.228;37.632;2023-11-21T04:20:48;6.3;;;5.9;;
72974;SDS011;74127;54.228;37.632;2023-11-21T04:24:47;8.7;;;8.1;;
72974;SDS011;74127;54.228;37.632;2023-11-21T04:28:47;8.3;;;7.6;;
72974;SDS011;74127;54.228;37.632;2023-11-21T04:32:47;8.1;;;7.4;;
72974;SDS011;74127;54.228;37.632;2023-11-21T04:36:47;8.1;;;7.4;;
72974;SDS011;74127;54.228;37.632;2023-11-21T04:40:47;9.9;;;8.9;;
72974;SDS011;74127;54.228;37.632;2023-11-21T04:44:47;9.3;;;8.4;;
72974;SDS011;74127;54.228;37.632;2023-11-21T04:48:47;6;;;5.6;;
72974;SDS011;74127;54.228;37.632;2023-11-21T04:52:47;6;;;5.6;;
72974;SDS011;74127;54.228;37.632;2023-11-21T04:56:47;7.2;;;6.6;;
72974;SDS011;74127;54.228;37.632;2023-11-21T05:00:47;7;;;6.5;;
72974;SDS011;74127;54.228;37.632;2023-11-21T05:04:47;7.6;;;6.9;;
72974;SDS011;74127;54.228;37.632;2023-11-21T05:08:47;7.9;;;7.2;;
72974;SDS011;74127;54.228;37.632;2023-11-21T05:12:47;7.9;;;7.2;;
72974;SDS011;74127;54.228;37.632;2023-11-21T05:16:47;9.8;;;8.9;;
72974;SDS011;74127;54.228;37.632;2023-11-21T05:20:47;8;;;6.5;;
72974;SDS011;74127;54.228;37.632;2023-11-21T05:24:47;8.5;;;7.7;;
72974;SDS011;74127;54.228;37.632;2023-11-21T05:28:47;7.5;;;6.9;;
72974;SDS011;74127;54.228;37.632;2023-11-21T05:32:47;7.5;;;6.9;;
72974;SDS011;74127;54.228;37.632;2023-11-21T05:36:47;7;;;6.5;;
72974;SDS011;74127;54.228;37.632;2023-11-21T05:40:47;6.9;;;6.4;;
72974;SDS011;74127;54.228;37.632;2023-11-21T05:44:47;9.4;;;8.5;;
72974;SDS011;74127;54.228;37.632;2023-11-21T05:48:47;7.2;;;6.6;;
72974;SDS011;74127;54.228;37.632;2023-11-21T05:52:47;7.2;;;6.6;;
72974;SDS011;74127;54.228;37.632;2023-11-21T05:56:47;7.5;;;7;;
72974;SDS011;74127;54.228;37.632;2023-11-21T06:00:47;7.5;;;7;;
72974;SDS011;74127;54.228;37.632;2023-11-21T06:04:47;7.4;;;6.7;;
72974;SDS011;74127;54.228;37.632;2023-11-21T06:08:47;6.6;;;6.1;;
72974;SDS011;74127;54.228;37.632;2023-11-21T06:12:47;6.6;;;6.1;;
72974;SDS011;74127;54.228;37.632;2023-11-21T06:16:47;9.3;;;8.3;;
72974;SDS011;74127;54.228;37.632;2023-11-21T06:20:47;7.8;;;7.2;;
72974;SDS011;74127;54.228;37.632;2023-11-21T06:24:47;9.6;;;8.6;;
72974;SDS011;74127;54.228;37.632;2023-11-21T06:28:47;8.3;;;7.8;;
72974;SDS011;74127;54.228;37.632;2023-11-21T06:32:47;8.3;;;7.8;;
72974;SDS011;74127;54.228;37.632;2023-11-21T06:36:47;8;;;7.3;;
72974;SDS011;74127;54.228;37.632;2023-11-21T06:40:47;9.3;;;8.6;;
72974;SDS011;74127;54.228;37.632;2023-11-21T06:44:47;10.7;;;9.8;;
72974;SDS011;74127;54.228;37.632;2023-11-21T06:48:47;10.7;;;9.8;;
72974;SDS011;74127;54.228;37.632;2023-11-21T06:52:47;8.5;;;7.8;;
72974;SDS011;74127;54.228;37.632;2023-11-21T06:56:47;8.5;;;7.9;;
72974;SDS011;74127;54.228;37.632;2023-11-21T07:00:47;8.5;;;7.9;;
72974;SDS011;74127;54.228;37.632;2023-11-21T07:04:47;9.7;;;8.9;;
72974;SDS011;74127;54.228;37.632;2023-11-21T07:08:47;9.7;;;8.9;;
72974;SDS011;74127;54.228;37.632;2023-11-21T07:12:47;7.9;;;7.3;;
72974;SDS011;74127;54.228;37.632;2023-11-21T07:16:47;7.1;;;6.5;;
72974;SDS011;74127;54.228;37.632;2023-11-21T07:20:47;9.8;;;8.8;;
72974;SDS011;74127;54.228;37.632;2023-11-21T07:24:50;8.4;;;7.8;;
72974;SDS011;74127;54.228;37.632;2023-11-21T07:28:47;8.4;;;7.8;;
72974;SDS011;74127;54.228;37.632;2023-11-21T07:32:47;8.4;;;7.7;;
72974;SDS011;74127;54.228;37.632;2023-11-21T07:36:47;7.8;;;7.2;;
72974;SDS011;74127;54.228;37.632;2023-11-21T07:40:47;9.1;;;8.3;;
72974;SDS011;74127;54.228;37.632;2023-11-21T07:44:47;8.5;;;7.7;;
72974;SDS011;74127;54.228;37.632;2023-11-21T07:48:47;8.5;;;7.7;;
72974;SDS011;74127;54.228;37.632;2023-11-21T07:52:47;7.8;;;7.2;;
72974;SDS011;74127;54.228;37.632;2023-11-21T07:56:47;7.8;;;7.2;;
72974;SDS011;74127;54.228;37.632;2023-11-21T08:00:48;6.7;;;6;;
72974;SDS011;74127;54.228;37.632;2023-11-21T08:04:47;6.7;;;6.3;;
72974;SDS011;74127;54.228;37.632;2023-11-21T08:08:47;6.7;;;6.3;;
72974;SDS011;74127;54.228;37.632;2023-11-21T08:12:47;6.1;;;5.7;;
72974;SDS011;74127;54.228;37.632;2023-11-21T08:16:47;7.9;;;7.3;;
72974;SDS011;74127;54.228;37.632;2023-11-21T08:20:48;8;;;7.5;;
72974;SDS011;74127;54.228;37.632;2023-11-21T08:24:47;8;;;7.5;;
72974;SDS011;74127;54.228;37.632;2023-11-21T08:28:47;7.1;;;6.6;;
72974;SDS011;74127;54.228;37.632;2023-11-21T08:32:47;9.1;;;8.3;;
72974;SDS011;74127;54.228;37.632;2023-11-21T08:36:47;7.9;;;7.3;;
72974;SDS011;74127;54.228;37.632;2023-11-21T08:40:47;8.1;;;7.5;;
72974;SDS011;74127;54.228;37.632;2023-11-21T08:44:47;8.1;;;7.5;;
72974;SDS011;74127;54.228;37.632;2023-11-21T08:48:47;9.1;;;8.3;;
72974;SDS011;74127;54.228;37.632;2023-11-21T08:52:48;9.1;;;8.5;;
72974;SDS011;74127;54.228;37.632;2023-11-21T08:56:47;9.6;;;8.9;;
72974;SDS011;74127;54.228;37.632;2023-11-21T09:00:47;9;;;8.4;;
72974;SDS011;74127;54.228;37.632;2023-11-21T09:04:47;9;;;8.4;;
72974;SDS011;74127;54.228;37.632;2023-11-21T09:08:47;10.2;;;9.5;;
72974;SDS011;74127;54.228;37.632;2023-11-21T09:12:47;9.5;;;8.8;;
72974;SDS011;74127;54.228;37.632;2023-11-21T09:16:47;11.2;;;10.3;;
72974;SDS011;74127;54.228;37.632;2023-11-21T09:20:47;10.8;;;10;;
72974;SDS011;74127;54.228;37.632;2023-11-21T09:24:47;10.8;;;10;;
72974;SDS011;74127;54.228;37.632;2023-11-21T09:28:47;9;;;8.4;;
72974;SDS011;74127;54.228;37.632;2023-11-21T09:32:47;9.9;;;9;;
72974;SDS011;74127;54.228;37.632;2023-11-21T09:36:47;8.9;;;8.3;;
72974;SDS011;74127;54.228;37.632;2023-11-21T09:40:47;9.6;;;9;;
72974;SDS011;74127;54.228;37.632;2023-11-21T09:45:06;9.6;;;9;;
72974;SDS011;74127;54.228;37.632;2023-11-21T09:48:50;10.1;;;9.3;;
72974;SDS011;74127;54.228;37.632;2023-11-21T09:56:48;7.6;;;7;;
72974;SDS011;74127;54.228;37.632;2023-11-21T10:00:49;8.8;;;8.3;;
72974;SDS011;74127;54.228;37.632;2023-11-21T10:04:47;8.8;;;8.3;;
72974;SDS011;74127;54.228;37.632;2023-11-21T10:08:49;8.6;;;8.1;;
72974;SDS011;74127;54.228;37.632;2023-11-21T10:12:50;9.4;;;8.8;;
72974;SDS011;74127;54.228;37.632;2023-11-21T10:16:48;10;;;9.3;;
72974;SDS011;74127;54.228;37.632;2023-11-21T10:20:47;10;;;9.3;;
72974;SDS011;74127;54.228;37.632;2023-11-21T10:24:47;10.6;;;9.9;;
72974;SDS011;74127;54.228;37.632;2023-11-21T10:28:57;9.7;;;9.1;;
72974;SDS011;74127;54.228;37.632;2023-11-21T10:32:47;10.4;;;9.7;;
72974;SDS011;74127;54.228;37.632;2023-11-21T10:36:47;9.7;;;9;;
72974;SDS011;74127;54.228;37.632;2023-11-21T10:40:48;9.7;;;9;;
72974;SDS011;74127;54.228;37.632;2023-11-21T10:44:48;9;;;8.4;;
72974;SDS011;74127;54.228;37.632;2023-11-21T10:48:51;10.5;;;9.8;;
72974;SDS011;74127;54.228;37.632;2023-11-21T10:52:47;10.7;;;9.7;;
72974;SDS011;74127;54.228;37.632;2023-11-21T10:56:53;10.9;;;10.1;;
72974;SDS011;74127;54.228;37.632;2023-11-21T11:00:47;10.9;;;10.1;;
72974;SDS011;74127;54.228;37.632;2023-11-21T11:04:48;8.7;;;8.2;;
72974;SDS011;74127;54.228;37.632;2023-11-21T11:08:48;7.9;;;7.4;;
72974;SDS011;74127;54.228;37.632;2023-11-21T11:12:48;8.8;;;8.1;;
72974;SDS011;74127;54.228;37.632;2023-11-21T11:16:48;8.3;;;7.7;;
72974;SDS011;74127;54.228;37.632;2023-11-21T11:20:48;8.3;;;7.7;;
72974;SDS011;74127;54.228;37.632;2023-11-21T11:28:55;8.8;;;8.3;;
72974;SDS011;74127;54.228;37.632;2023-11-21T11:33:10;7.6;;;7.2;;
72974;SDS011;74127;54.228;37.632;2023-11-21T11:36:51;8.4;;;7.9;;
72974;SDS011;74127;54.228;37.632;2023-11-21T11:40:52;8.4;;;7.9;;
72974;SDS011;74127;54.228;37.632;2023-11-21T11:44:48;8.9;;;8.3;;
72974;SDS011;74127;54.228;37.632;2023-11-21T11:48:48;8.2;;;7.6;;
72974;SDS011;74127;54.228;37.632;2023-11-21T11:52:49;8.2;;;7.7;;
72974;SDS011;74127;54.228;37.632;2023-11-21T11:56:48;8.2;;;7.7;;
72974;SDS011;74127;54.228;37.632;2023-11-21T12:00:49;11;;;10.1;;
72974;SDS011;74127;54.228;37.632;2023-11-21T12:04:48;8.9;;;8.2;;
72974;SDS011;74127;54.228;37.632;2023-11-21T12:08:48;8.5;;;7.8;;
72974;SDS011;74127;54.228;37.632;2023-11-21T12:12:49;7.6;;;7.2;;
72974;SDS011;74127;54.228;37.632;2023-11-21T12:16:48;7.6;;;7.2;;
72974;SDS011;74127;54.228;37.632;2023-11-21T12:20:48;7.4;;;6.9;;
72974;SDS011;74127;54.228;37.632;2023-11-21T12:24:48;8.5;;;7.9;;
72974;SDS011;74127;54.228;37.632;2023-11-21T12:28:51;8.6;;;7.8;;
72974;SDS011;74127;54.228;37.632;2023-11-21T12:32:49;6.6;;;6.2;;
72974;SDS011;74127;54.228;37.632;2023-11-21T12:36:48;6.6;;;6.2;;
72974;SDS011;74127;54.228;37.632;2023-11-21T12:40:48;8.2;;;7.7;;
72974;SDS011;74127;54.228;37.632;2023-11-21T12:44:48;7.8;;;7.3;;
72974;SDS011;74127;54.228;37.632;2023-11-21T12:48:48;7.7;;;7.2;;
72974;SDS011;74127;54.228;37.632;2023-11-21T12:52:48;7.1;;;6.6;;
72974;SDS011;74127;54.228;37.632;2023-11-21T12:56:49;7.1;;;6.6;;
72974;SDS011;74127;54.228;37.632;2023-11-21T13:00:49;6;;;5.7;;
72974;SDS011;74127;54.228;37.632;2023-11-21T13:04:51;8.1;;;7.5;;
72974;SDS011;74127;54.228;37.632;2023-11-21T13:08:48;7.3;;;6.8;;
72974;SDS011;74127;54.228;37.632;2023-11-21T13:12:48;6.1;;;5.7;;
72974;SDS011;74127;54.228;37.632;2023-11-21T13:16:48;6.1;;;5.7;;
72974;SDS011;74127;54.228;37.632;2023-11-21T13:20:48;7.9;;;7.1;;
72974;SDS011;74127;54.228;37.632;2023-11-21T13:24:48;8.9;;;8.1;;
72974;SDS011;74127;54.228;37.632;2023-11-21T13:28:48;7.2;;;6.7;;
72974;SDS011;74127;54.228;37.632;2023-11-21T13:32:48;5.7;;;5.4;;
72974;SDS011;74127;54.228;37.632;2023-11-21T13:36:48;5.7;;;5.4;;
72974;SDS011;74127;54.228;37.632;2023-11-21T13:40:57;6.3;;;5.9;;
72974;SDS011;74127;54.228;37.632;2023-11-21T13:44:48;6.7;;;6.1;;
72974;SDS011;74127;54.228;37.632;2023-11-21T13:48:49;11.3;;;10.3;;
72974;SDS011;74127;54.228;37.632;2023-11-21T13:52:48;11.3;;;10.3;;
72974;SDS011;74127;54.228;37.632;2023-11-21T13:56:48;8.4;;;7.8;;
72974;SDS011;74127;54.228;37.632;2023-11-21T14:00:48;7.6;;;7.1;;
72974;SDS011;74127;54.228;37.632;2023-11-21T14:04:48;6.5;;;6.1;;
72974;SDS011;74127;54.228;37.632;2023-11-21T14:08:48;7.9;;;7.4;;
72974;SDS011;74127;54.228;37.632;2023-11-21T14:12:48;7.9;;;7.4;;
72974;SDS011;74127;54.228;37.632;2023-11-21T14:16:48;7.4;;;6.9;;
72974;SDS011;74127;54.228;37.632;2023-11-21T14:20:48;7.4;;;6.8;;
72974;SDS011;74127;54.228;37.632;2023-11-21T14:24:48;7.5;;;7;;
72974;SDS011;74127;54.228;37.632;2023-11-21T14:28:48;8.1;;;7.5;;
72974;SDS011;74127;54.228;37.632;2023-11-21T14:32:48;8.1;;;7.5;;
72974;SDS011;74127;54.228;37.632;2023-11-21T14:36:48;7;;;6.5;;
72974;SDS011;74127;54.228;37.632;2023-11-21T14:40:48;7.1;;;6.6;;
72974;SDS011;74127;54.228;37.632;2023-11-21T14:44:48;6.8;;;6.3;;
72974;SDS011;74127;54.228;37.632;2023-11-21T14:48:48;7.6;;;7;;
72974;SDS011;74127;54.228;37.632;2023-11-21T14:52:48;7.6;;;7;;
72974;SDS011;74127;54.228;37.632;2023-11-21T14:56:48;8.3;;;7.7;;
72974;SDS011;74127;54.228;37.632;2023-11-21T15:00:48;7.1;;;6.5;;
72974;SDS011;74127;54.228;37.632;2023-11-21T15:04:48;8.1;;;7.5;;
72974;SDS011;74127;54.228;37.632;2023-11-21T15:08:49;7.6;;;7.1;;
72974;SDS011;74127;54.228;37.632;2023-11-21T15:12:48;7.6;;;7.1;;
72974;SDS011;74127;54.228;37.632;2023-11-21T15:16:48;9.4;;;8.6;;
72974;SDS011;74127;54.228;37.632;2023-11-21T15:20:48;9.3;;;8.4;;
72974;SDS011;74127;54.228;37.632;2023-11-21T15:24:48;7.8;;;7.3;;
72974;SDS011;74127;54.228;37.632;2023-11-21T15:28:48;7.8;;;7.3;;
72974;SDS011;74127;54.228;37.632;2023-11-21T15:32:48;8;;;7.4;;
72974;SDS011;74127;54.228;37.632;2023-11-21T15:36:48;7.4;;;7;;
72974;SDS011;74127;54.228;37.632;2023-11-21T15:40:48;7.5;;;7;;
72974;SDS011;74127;54.228;37.632;2023-11-21T15:44:48;7.9;;;7.2;;
72974;SDS011;74127;54.228;37.632;2023-11-21T15:48:48;7.9;;;7.2;;
72974;SDS011;74127;54.228;37.632;2023-11-21T15:52:48;7.2;;;6.7;;
72974;SDS011;74127;54.228;37.632;2023-11-21T15:56:48;7.3;;;6.7;;
72974;SDS011;74127;54.228;37.632;2023-11-21T16:00:48;7.6;;;7.2;;
72974;SDS011;74127;54.228;37.632;2023-11-21T16:04:48;7.3;;;6.8;;
72974;SDS011;74127;54.228;37.632;2023-11-21T16:08:48;7.3;;;6.8;;
72974;SDS011;74127;54.228;37.632;2023-11-21T16:12:48;7.6;;;7.1;;
72974;SDS011;74127;54.228;37.632;2023-11-21T16:16:48;7.5;;;6.8;;
72974;SDS011;74127;54.228;37.632;2023-11-21T16:20:48;6.5;;;6.1;;
72974;SDS011;74127;54.228;37.632;2023-11-21T16:24:48;8.4;;;7.6;;
72974;SDS011;74127;54.228;37.632;2023-11-21T16:28:48;8.4;;;7.6;;
72974;SDS011;74127;54.228;37.632;2023-11-21T16:32:48;8.3;;;7.7;;
72974;SDS011;74127;54.228;37.632;2023-11-21T16:36:48;7.2;;;6.6;;
72974;SDS011;74127;54.228;37.632;2023-11-21T16:40:48;7.5;;;7;;
72974;SDS011;74127;54.228;37.632;2023-11-21T16:44:49;8.5;;;8;;
72974;SDS011;74127;54.228;37.632;2023-11-21T16:48:48;8.5;;;8;;
72974;SDS011;74127;54.228;37.632;2023-11-21T16:52:48;7.7;;;7.1;;
72974;SDS011;74127;54.228;37.632;2023-11-21T16:56:48;7.7;;;7.1;;
72974;SDS011;74127;54.228;37.632;2023-11-21T17:00:48;8.3;;;7.6;;
72974;SDS011;74127;54.228;37.632;2023-11-21T17:04:48;8.6;;;7.8;;
72974;SDS011;74127;54.228;37.632;2023-11-21T17:08:48;8.6;;;7.8;;
72974;SDS011;74127;54.228;37.632;2023-11-21T17:12:48;8.1;;;7.5;;
72974;SDS011;74127;54.228;37.632;2023-11-21T17:16:48;9.2;;;8.5;;
72974;SDS011;74127;54.228;37.632;2023-11-21T17:20:48;8.1;;;7.4;;
72974;SDS011;74127;54.228;37.632;2023-11-21T17:24:48;8.1;;;7.4;;
72974;SDS011;74127;54.228;37.632;2023-11-21T17:28:49;7.6;;;7;;
72974;SDS011;74127;54.228;37.632;2023-11-21T17:32:48;9.2;;;8;;
72974;SDS011;74127;54.228;37.632;2023-11-21T17:36:48;7.1;;;6.5;;
72974;SDS011;74127;54.228;37.632;2023-11-21T17:40:48;7;;;6.6;;
72974;SDS011;74127;54.228;37.632;2023-11-21T17:44:48;7;;;6.6;;
72974;SDS011;74127;54.228;37.632;2023-11-21T17:48:49;6.8;;;6.2;;
72974;SDS011;74127;54.228;37.632;2023-11-21T17:52:48;5.8;;;5.4;;
72974;SDS011;74127;54.228;37.632;2023-11-21T17:56:48;6.9;;;6.4;;
72974;SDS011;74127;54.228;37.632;2023-11-21T18:00:48;5.8;;;5.4;;
72974;SDS011;74127;54.228;37.632;2023-11-21T18:04:48;5.8;;;5.4;;
72974;SDS011;74127;54.228;37.632;2023-11-21T18:08:48;7.6;;;6.9;;
72974;SDS011;74127;54.228;37.632;2023-11-21T18:12:48;5.7;;;5.3;;
72974;SDS011;74127;54.228;37.632;2023-11-21T18:16:49;8.4;;;7.5;;
72974;SDS011;74127;54.228;37.632;2023-11-21T18:20:48;8.9;;;8.2;;
72974;SDS011;74127;54.228;37.632;2023-11-21T18:24:48;8.9;;;8.2;;
72974;SDS011;74127;54.228;37.632;2023-11-21T18:28:48;7.3;;;6.7;;
72974;SDS011;74127;54.228;37.632;2023-11-21T18:32:48;7.3;;;6.8;;
72974;SDS011;74127;54.228;37.632;2023-11-21T18:36:48;8.2;;;7.6;;
72974;SDS011;74127;54.228;37.632;2023-11-21T18:40:48;7.6;;;7.1;;
72974;SDS011;74127;54.228;37.632;2023-11-21T18:44:48;7.6;;;7.1;;
72974;SDS011;74127;54.228;37.632;2023-11-21T18:48:48;6.6;;;6;;
72974;SDS011;74127;54.228;37.632;2023-11-21T18:52:48;6.4;;;6;;
72974;SDS011;74127;54.228;37.632;2023-11-21T18:56:48;6.5;;;6;;
72974;SDS011;74127;54.228;37.632;2023-11-21T19:00:48;6.5;;;6;;
72974;SDS011;74127;54.228;37.632;2023-11-21T19:04:48;7.5;;;6.9;;
72974;SDS011;74127;54.228;37.632;2023-11-21T19:08:48;6.9;;;6.5;;
72974;SDS011;74127;54.228;37.632;2023-11-21T19:12:48;6.6;;;6.2;;
72974;SDS011;74127;54.228;37.632;2023-11-21T19:16:48;7.5;;;6.9;;
72974;SDS011;74127;54.228;37.632;2023-11-21T19:20:48;7.5;;;6.9;;
72974;SDS011;74127;54.228;37.632;2023-11-21T19:24:48;7.3;;;6.8;;
72974;SDS011;74127;54.228;37.632;2023-11-21T19:28:48;6.8;;;6.3;;
72974;SDS011;74127;54.228;37.632;2023-11-21T19:32:48;7.4;;;6.8;;
72974;SDS011;74127;54.228;37.632;2023-11-21T19:36:48;6.4;;;6;;
72974;SDS011;74127;54.228;37.632;2023-11-21T19:40:48;6.4;;;6;;
72974;SDS011;74127;54.228;37.632;2023-11-21T19:44:48;7.2;;;6.8;;
72974;SDS011;74127;54.228;37.632;2023-11-21T19:48:48;7;;;6.5;;
72974;SDS011;74127;54.228;37.632;2023-11-21T19:52:48;7.3;;;6.8;;
72974;SDS011;74127;54.228;37.632;2023-11-21T19:56:48;7;;;6.5;;
72974;SDS011;74127;54.228;37.632;2023-11-21T20:00:48;7;;;6.5;;
72974;SDS011;74127;54.228;37.632;2023-11-21T20:04:48;7.9;;;7.3;;
72974;SDS011;74127;54.228;37.632;2023-11-21T20:08:48;6.2;;;5.7;;
72974;SDS011;74127;54.228;37.632;2023-11-21T20:12:48;6.9;;;6.4;;
72974;SDS011;74127;54.228;37.632;2023-11-21T20:16:49;7;;;6.5;;
72974;SDS011;74127;54.228;37.632;2023-11-21T20:20:49;7;;;6.5;;
72974;SDS011;74127;54.228;37.632;2023-11-21T20:24:48;7;;;6.5;;
72974;SDS011;74127;54.228;37.632;2023-11-21T20:28:49;8;;;7.4;;
72974;SDS011;74127;54.228;37.632;2023-11-21T20:32:49;7.3;;;6.8;;
72974;SDS011;74127;54.228;37.632;2023-11-21T20:36:49;7.6;;;7;;
72974;SDS011;74127;54.228;37.632;2023-11-21T20:40:48;7.6;;;7;;
72974;SDS011;74127;54.228;37.632;2023-11-21T20:44:48;7.3;;;6.6;;
72974;SDS011;74127;54.228;37.632;2023-11-21T20:48:48;7.1;;;6.6;;
72974;SDS011;74127;54.228;37.632;2023-11-21T20:52:49;7.4;;;6.9;;
72974;SDS011;74127;54.228;37.632;2023-11-21T20:56:48;7.4;;;6.9;;
72974;SDS011;74127;54.228;37.632;2023-11-21T21:00:48;6.7;;;6.2;;
72974;SDS011;74127;54.228;37.632;2023-11-21T21:04:48;6.7;;;6.3;;
72974;SDS011;74127;54.228;37.632;2023-11-21T21:08:48;6.7;;;6.3;;
72974;SDS011;74127;54.228;37.632;2023-11-21T21:12:48;6.2;;;5.7;;
72974;SDS011;74127;54.228;37.632;2023-11-21T21:16:48;6.2;;;5.7;;
72974;SDS011;74127;54.228;37.632;2023-11-21T21:20:48;6.3;;;5.9;;
72974;SDS011;74127;54.228;37.632;2023-11-21T21:24:48;6.2;;;5.8;;
72974;SDS011;74127;54.228;37.632;2023-11-21T21:28:49;6.7;;;6.3;;
72974;SDS011;74127;54.228;37.632;2023-11-21T21:32:48;7.1;;;6.6;;
72974;SDS011;74127;54.228;37.632;2023-11-21T21:36:48;7.1;;;6.6;;
72974;SDS011;74127;54.228;37.632;2023-11-21T21:40:49;6.5;;;6;;
72974;SDS011;74127;54.228;37.632;2023-11-21T21:44:49;6.3;;;5.9;;
72974;SDS011;74127;54.228;37.632;2023-11-21T21:48:49;7;;;6.5;;
72974;SDS011;74127;54.228;37.632;2023-11-21T21:52:49;6.6;;;6.1;;
72974;SDS011;74127;54.228;37.632;2023-11-21T21:56:49;6.6;;;6.1;;
72974;SDS011;74127;54.228;37.632;2023-11-21T22:00:49;7.3;;;6.7;;
72974;SDS011;74127;54.228;37.632;2023-11-21T22:04:49;6.4;;;5.9;;
72974;SDS011;74127;54.228;37.632;2023-11-21T22:08:49;5.5;;;5.2;;
72974;SDS011;74127;54.228;37.632;2023-11-21T22:12:49;7.5;;;7;;
72974;SDS011;74127;54.228;37.632;2023-11-21T22:16:49;7.5;;;7;;
72974;SDS011;74127;54.228;37.632;2023-11-21T22:20:49;5.3;;;5;;
72974;SDS011;74127;54.228;37.632;2023-11-21T22:24:50;7.1;;;6.7;;
72974;SDS011;74127;54.228;37.632;2023-11-21T22:28:49;6.7;;;6.2;;
72974;SDS011;74127;54.228;37.632;2023-11-21T22:32:57;6.7;;;6.2;;
72974;SDS011;74127;54.228;37.632;2023-11-21T22:36:49;5.3;;;5;;
72974;SDS011;74127;54.228;37.632;2023-11-21T22:40:49;7.5;;;6.9;;
72974;SDS011;74127;54.228;37.632;2023-11-21T22:44:49;5.8;;;5.5;;
72974;SDS011;74127;54.228;37.632;2023-11-21T22:48:49;7.4;;;5.8;;
72974;SDS011;74127;54.228;37.632;2023-11-21T22:52:49;7.4;;;5.8;;
72974;SDS011;74127;54.228;37.632;2023-11-21T22:56:49;5.9;;;5.5;;
72974;SDS011;74127;54.228;37.632;2023-11-21T23:00:49;6.5;;;6;;
72974;SDS011;74127;54.228;37.632;2023-11-21T23:04:49;5.6;;;5.3;;
72974;SDS011;74127;54.228;37.632;2023-11-21T23:08:49;6.4;;;6;;
72974;SDS011;74127;54.228;37.632;2023-11-21T23:12:49;6.4;;;6;;
72974;SDS011;74127;54.228;37.632;2023-11-21T23:16:49;6.2;;;5.8;;
72974;SDS011;74127;54.228;37.632;2023-11-21T23:20:49;7.3;;;6.8;;
72974;SDS011;74127;54.228;37.632;2023-11-21T23:24:49;5.7;;;5.4;;
72974;SDS011;74127;54.228;37.632;2023-11-21T23:28:49;6.2;;;5.8;;
72974;SDS011;74127;54.228;37.632;2023-11-21T23:32:49;6.2;;;5.8;;
72974;SDS011;74127;54.228;37.632;2023-11-21T23:36:49;6.8;;;6.3;;
72974;SDS011;74127;54.228;37.632;2023-11-21T23:40:49;5.7;;;5.4;;
72974;SDS011;74127;54.228;37.632;2023-11-21T23:44:49;7.7;;;7;;
72974;SDS011;74127;54.228;37.632;2023-11-21T23:48:49;6.4;;;5.9;;
72974;SDS011;74127;54.228;37.632;2023-11-21T23:52:50;6.4;;;5.9;;
72974;SDS011;74127;54.228;37.632;2023-11-21T23:56:49;6.1;;;5.7;;
